AirNav   Pilot Hours Calculator
 
 454 users online  

CO02 Harrington Ranch Airport
Bennet, Colorado, USA

GOING TO BENNET?


FAA INFORMATION EFFECTIVE 26 JANUARY 2023

Location

FAA Identifier: CO02
Lat/Long: 39-37-46.9500N 104-31-06.8760W
39-37.782500N 104-31.114600W
39.6297083,-104.5185767
(estimated)
Elevation: 5975 ft. / 1821 m (estimated)
Variation: 11E (1985)
From city: 9 miles SW of BENNET, CO
Time zone: UTC -7 (UTC -6 during Daylight Saving Time)
Zip code: 80102

Airport Operations

Airport use: Private use. Permission required prior to landing
Activation date: 07/1988
Control tower: no
ARTCC: DENVER CENTER
FSS: DENVER FLIGHT SERVICE STATION
Attendance: UNATNDD
Wind indicator: yes
Segmented circle: no

Airport Communications

WX AWOS-3 at CFO (9 nm N): 119.025 (303-261-9104)
WX ASOS at DEN (16 nm NW): PHONE 303-342-1920
WX ASOS at APA (16 nm W): PHONE 720-873-2799

Nearby radio navigation aids

VOR radial/distance  VOR name  Freq  Var
FQFr116/6.0FALCON VORTAC116.3011E
DENr141/12.8DENVER VOR/DME117.9008E
DVVr155/16.6MILE HIGH VORTAC114.7008E
BJCr110/33.3JEFFCO VOR/DME115.4011E

Airport Services

Runway Information

Runway N/S

Dimensions: 3500 x 50 ft. / 1067 x 15 m
Surface: turf
RUNWAY N  RUNWAY S
Traffic pattern: leftleft
Obstructions: plinenone

Airport Ownership and Management from official FAA records

Ownership: Privately-owned
Owner: PAUL HARRINGTON
4020 E QUINCY AVE
WATKINS, CO 80137
Phone 303-693-6908
Manager: NONE

Airport Operational Statistics

Aircraft based on the field: 1
Single engine airplanes: 1
    

Additional Remarks

(A58-N/S) POWER LINE E/W 30' ABV LDG AREA, TO NORTH 450'.
FOR CD CTC DENVER APCH AT 303-342-1916.

Instrument Procedures

There are no published instrument procedures at CO02.

Some nearby airports with instrument procedures:

KCFO - Colorado Air and Space Port Airport (9 nm N)
KBKF - Buckley Space Force Base (12 nm W)
KDEN - Denver International Airport (16 nm NW)
KAPA - Centennial Airport (16 nm W)
KBJC - Rocky Mountain Metro Airport (32 nm NW)
 
Loc | Ops | Rwys | IFR | FBO | Links
Com | Nav | Svcs | Stats | Notes

AirBoss

 
Area around CO02 (Harrington Ranch Airport)
 
Road maps at: MapQuest Bing Google
 
Aerial photo
No photo
 
Sectional chart

 
Airport distance calculator
Flying to Harrington Ranch Airport? Find the distance to fly.

From to CO02

Sunrise and sunset
Times for 04-Feb-2023
 Local
(UTC-7)
 Zulu
(UTC)
Morning civil twilight06:3613:36
Sunrise07:0414:04
Sunset17:2000:20
Evening civil twilight17:4800:48

Current date and time
Zulu (UTC)  04-Feb-2023 10:29:50
Local (UTC-7)  04-Feb-2023 03:29:50
 
METAR
KCFO 
9nm N 
041015Z AUTO 22013KT 10SM CLR 04/M11 A3003 RMK AO2 T00391111
KBKF 
12nm NW 
040958Z 20006KT 10SM FEW130 BKN220 03/M13 A3002 RMK AO2A SLP144 T00281127
KDEN 
14nm NW 
040953Z 23007KT 10SM BKN220 03/M09 A3002 RMK AO2 SLP158 T00281094
KAPA 
16nm W 
040953Z 24008KT 10SM FEW120 BKN200 04/M12 A3003 RMK AO2 SLP156 T00391122
TAF
KBKF 
12nm NW 
040100Z 0401/0507 VRB06KT 9999 SKC 510013 QNH3006INS BECMG 0415/0416 VRB06KT 9999 FEW150 FEW210 SCT280 530054 QNH3007INS TX04/0422Z TNM02/0502Z
KDEN 
14nm NW 
040534Z 0406/0512 21011KT P6SM SCT100 BKN200 FM041600 25009KT P6SM FEW100 BKN200 FM050200 20010KT P6SM FEW100 BKN200
KAPA 
16nm W 
040534Z 0406/0506 20010KT P6SM SCT100 BKN200 FM041700 25009KT P6SM FEW100 BKN200 FM050200 19010KT P6SM FEW100 BKN200
NOTAMs
Click for the latest NOTAMs
NOTAMs are issued by the DoD/FAA and will open in a separate window not controlled by AirNav.

 

 
 

Would you like to see your business listed on this page?

 If your business provides an interesting product or service to pilots, flight crews, aircraft, or users of the Harrington Ranch Airport, you should consider listing it here.  To start the listing process, click on the button below
 
Add a business
 

Other Pages about Harrington Ranch Airport

Update a link
 
Copyright © AirNav, LLC. All rights reserved. Privacy Policy  Contact